Time;durP1;ratioP1;P1;durP2;ratioP2;P2;SDS_P1;SDS_P2;PMS_P1;PMS_P2;Temp;Humidity;BMP_temperature;BMP_pressure;BME280_temperature;BME280_humidity;BME280_pressure;Samples;Min_cycle;Max_cycle;Signal;HPM_P1;HPM_P2
2022/10/16 00:01:44;;;;;;;0.40;0.30;;;;;;;;;;5139954;27;20210;-67
2022/10/16 00:04:13;;;;;;;1.23;0.30;;;;;;;;;;5139688;27;20241;-67
2022/10/16 00:06:41;;;;;;;2.08;0.40;;;;;;;;;;5139325;27;20581;-67
2022/10/16 00:09:09;;;;;;;0.52;0.28;;;;;;;;;;5140229;27;20202;-67
2022/10/16 00:11:38;;;;;;;1.00;0.30;;;;;;;;;;5140251;27;20202;-67
2022/10/16 00:14:09;;;;;;;0.30;0.30;;;;;;;;;;5140055;27;20202;-67
2022/10/16 00:16:37;;;;;;;0.70;0.32;;;;;;;;;;5139430;27;20198;-67
2022/10/16 00:19:05;;;;;;;0.25;0.25;;;;;;;;;;5131746;27;20218;-66
2022/10/16 00:21:34;;;;;;;0.82;0.30;;;;;;;;;;5140132;27;20256;-68
2022/10/16 00:24:03;;;;;;;0.52;0.40;;;;;;;;;;5139438;27;20221;-67
2022/10/16 00:26:32;;;;;;;0.90;0.30;;;;;;;;;;5134629;27;20242;-67
2022/10/16 00:29:00;;;;;;;0.20;0.20;;;;;;;;;;5139838;27;20281;-66
2022/10/16 00:31:28;;;;;;;0.30;0.22;;;;;;;;;;5139308;27;20202;-67
2022/10/16 00:33:56;;;;;;;0.30;0.28;;;;;;;;;;5139703;27;20206;-66
2022/10/16 00:36:24;;;;;;;0.30;0.30;;;;;;;;;;5139072;27;20233;-69
2022/10/16 00:38:54;;;;;;;0.68;0.30;;;;;;;;;;5139909;27;20233;-66
2022/10/16 00:41:22;;;;;;;0.30;0.30;;;;;;;;;;5139948;27;20503;-68
2022/10/16 00:43:51;;;;;;;0.30;0.20;;;;;;;;;;5139800;27;20210;-68
2022/10/16 00:46:21;;;;;;;0.25;0.20;;;;;;;;;;5138889;27;20198;-67
2022/10/16 00:48:50;;;;;;;0.40;0.30;;;;;;;;;;5139311;27;20190;-66
2022/10/16 00:51:20;;;;;;;0.30;0.30;;;;;;;;;;5139270;27;20263;-67
2022/10/16 00:53:48;;;;;;;0.20;0.20;;;;;;;;;;5139397;27;20213;-67
2022/10/16 00:56:18;;;;;;;0.20;0.20;;;;;;;;;;5138457;27;20205;-67
2022/10/16 00:58:46;;;;;;;0.40;0.30;;;;;;;;;;5139359;27;20355;-67
2022/10/16 01:01:14;;;;;;;0.30;0.30;;;;;;;;;;5139730;27;20467;-67
2022/10/16 01:03:42;;;;;;;0.30;0.30;;;;;;;;;;5139391;27;20199;-67
2022/10/16 01:06:24;;;;;;;0.28;0.28;;;;;;;;;;5138125;27;20234;-67
2022/10/16 01:08:59;;;;;;;0.47;0.30;;;;;;;;;;5139112;27;20263;-68
2022/10/16 01:11:32;;;;;;;0.30;0.30;;;;;;;;;;5139341;27;20252;-68
2022/10/16 01:14:04;;;;;;;0.20;0.20;;;;;;;;;;5138643;27;20210;-68
2022/10/16 01:16:35;;;;;;;0.63;0.35;;;;;;;;;;5138299;27;20264;-67
2022/10/16 01:19:08;;;;;;;0.47;0.30;;;;;;;;;;5138926;27;20467;-68
2022/10/16 01:21:38;;;;;;;0.35;0.30;;;;;;;;;;5139039;27;20617;-67
2022/10/16 01:24:13;;;;;;;0.20;0.20;;;;;;;;;;5138587;27;20231;-68
2022/10/16 01:26:52;;;;;;;0.30;0.20;;;;;;;;;;5138170;27;20264;-67
2022/10/16 01:29:23;;;;;;;0.35;0.35;;;;;;;;;;5139074;27;20270;-67
2022/10/16 01:31:55;;;;;;;0.20;0.20;;;;;;;;;;5139287;27;20289;-67
2022/10/16 01:34:26;;;;;;;0.20;0.20;;;;;;;;;;5138839;27;20489;-67
2022/10/16 01:36:55;;;;;;;0.30;0.20;;;;;;;;;;5137696;27;20263;-67
2022/10/16 01:39:24;;;;;;;0.30;0.30;;;;;;;;;;5138592;28;20275;-68
2022/10/16 01:41:57;;;;;;;0.30;0.30;;;;;;;;;;5138975;27;20607;-67
2022/10/16 01:44:27;;;;;;;0.25;0.25;;;;;;;;;;5138754;28;20293;-67
2022/10/16 01:46:56;;;;;;;0.20;0.20;;;;;;;;;;5138173;28;20205;-67
2022/10/16 01:49:25;;;;;;;0.25;0.25;;;;;;;;;;5138775;28;20198;-67
2022/10/16 01:51:54;;;;;;;0.30;0.20;;;;;;;;;;5138502;28;20212;-68
2022/10/16 01:54:22;;;;;;;0.43;0.20;;;;;;;;;;5139102;28;20205;-67
2022/10/16 01:56:52;;;;;;;0.52;0.30;;;;;;;;;;5136997;28;20281;-67
2022/10/16 01:59:21;;;;;;;0.20;0.20;;;;;;;;;;5138488;28;20258;-67
2022/10/16 02:01:52;;;;;;;0.65;0.30;;;;;;;;;;5137848;27;20309;-69
2022/10/16 02:04:23;;;;;;;0.30;0.30;;;;;;;;;;5138589;27;20210;-68
2022/10/16 02:06:51;;;;;;;0.20;0.20;;;;;;;;;;5137786;27;20198;-67
2022/10/16 02:09:20;;;;;;;0.30;0.30;;;;;;;;;;5138552;27;20198;-68
2022/10/16 02:11:49;;;;;;;0.22;0.22;;;;;;;;;;5138655;27;20616;-67
2022/10/16 02:14:16;;;;;;;0.30;0.22;;;;;;;;;;5138835;27;20195;-67
2022/10/16 02:16:45;;;;;;;0.77;0.20;;;;;;;;;;5138047;27;20198;-67
2022/10/16 02:19:15;;;;;;;0.20;0.20;;;;;;;;;;5138315;27;20252;-68
2022/10/16 02:21:45;;;;;;;0.20;0.20;;;;;;;;;;5138235;27;20221;-67
2022/10/16 02:24:17;;;;;;;0.20;0.20;;;;;;;;;;5137421;27;20213;-68
2022/10/16 02:26:47;;;;;;;0.35;0.30;;;;;;;;;;5139015;27;20230;-68
2022/10/16 02:29:18;;;;;;;0.30;0.30;;;;;;;;;;5142194;27;20199;-67
2022/10/16 02:31:47;;;;;;;0.25;0.20;;;;;;;;;;5142026;27;20202;-68
2022/10/16 02:34:18;;;;;;;0.25;0.25;;;;;;;;;;5142400;27;20212;-67
2022/10/16 02:36:46;;;;;;;0.30;0.30;;;;;;;;;;5141408;27;20208;-67
2022/10/16 02:39:15;;;;;;;0.30;0.30;;;;;;;;;;5142322;27;20218;-67
2022/10/16 02:41:43;;;;;;;0.20;0.20;;;;;;;;;;5142262;27;20286;-67
2022/10/16 02:44:10;;;;;;;0.30;0.30;;;;;;;;;;5142123;27;20214;-67
2022/10/16 02:46:38;;;;;;;0.30;0.30;;;;;;;;;;5141096;27;20206;-67
2022/10/16 02:49:06;;;;;;;0.30;0.30;;;;;;;;;;5141957;27;20202;-67
2022/10/16 02:51:35;;;;;;;0.25;0.25;;;;;;;;;;5142071;27;20297;-67
2022/10/16 02:54:03;;;;;;;0.20;0.20;;;;;;;;;;5142131;27;20255;-67
2022/10/16 02:56:31;;;;;;;0.52;0.20;;;;;;;;;;5140620;27;20210;-67
2022/10/16 02:58:59;;;;;;;0.20;0.20;;;;;;;;;;5141539;27;20233;-68
2022/10/16 03:01:27;;;;;;;0.40;0.30;;;;;;;;;;5140689;27;20209;-66
2022/10/16 03:03:55;;;;;;;0.25;0.25;;;;;;;;;;5141753;27;20202;-67
2022/10/16 03:06:23;;;;;;;0.30;0.30;;;;;;;;;;5140974;27;20236;-67
2022/10/16 03:08:52;;;;;;;0.25;0.25;;;;;;;;;;5141957;27;20558;-68
2022/10/16 03:11:20;;;;;;;0.30;0.30;;;;;;;;;;5141401;27;20202;-67
2022/10/16 03:13:48;;;;;;;0.20;0.20;;;;;;;;;;5140855;27;20578;-67
2022/10/16 03:16:15;;;;;;;0.30;0.30;;;;;;;;;;5140051;27;20582;-67
2022/10/16 03:18:43;;;;;;;0.30;0.22;;;;;;;;;;5140521;27;20265;-66
2022/10/16 03:21:11;;;;;;;0.30;0.20;;;;;;;;;;5140386;27;20800;-66
2022/10/16 03:23:38;;;;;;;0.32;0.20;;;;;;;;;;5140851;27;20206;-67
2022/10/16 03:26:08;;;;;;;0.35;0.30;;;;;;;;;;5139693;27;20244;-67
2022/10/16 03:28:36;;;;;;;0.30;0.30;;;;;;;;;;5140348;27;20206;-67
2022/10/16 03:31:04;;;;;;;0.20;0.20;;;;;;;;;;5140768;27;20699;-67
2022/10/16 03:33:31;;;;;;;0.20;0.20;;;;;;;;;;5140748;27;20271;-67
2022/10/16 03:36:00;;;;;;;0.28;0.28;;;;;;;;;;5138259;27;20827;-66
2022/10/16 03:38:28;;;;;;;0.20;0.20;;;;;;;;;;5119058;28;20555;-67
2022/10/16 03:40:56;;;;;;;0.20;0.20;;;;;;;;;;5119108;28;20207;-67
2022/10/16 03:43:25;;;;;;;0.30;0.30;;;;;;;;;;5119711;28;20513;-67
2022/10/16 03:45:53;;;;;;;0.30;0.30;;;;;;;;;;5120878;27;20214;-67
2022/10/16 03:48:21;;;;;;;0.20;0.20;;;;;;;;;;5140022;27;20208;-67
2022/10/16 03:50:50;;;;;;;0.22;0.22;;;;;;;;;;5140666;27;20202;-68
2022/10/16 03:53:18;;;;;;;0.20;0.20;;;;;;;;;;5140153;27;20206;-67
2022/10/16 03:55:46;;;;;;;0.20;0.20;;;;;;;;;;5139493;27;20590;-68
2022/10/16 03:58:14;;;;;;;0.68;0.32;;;;;;;;;;5119556;28;20287;-67
2022/10/16 04:00:44;;;;;;;0.43;0.30;;;;;;;;;;5119643;28;20237;-67
2022/10/16 04:03:12;;;;;;;0.30;0.30;;;;;;;;;;5119541;28;20198;-67
2022/10/16 04:05:39;;;;;;;0.20;0.20;;;;;;;;;;5120206;28;20298;-67
2022/10/16 04:08:07;;;;;;;0.47;0.30;;;;;;;;;;5139125;27;20729;-67
2022/10/16 04:10:35;;;;;;;0.30;0.30;;;;;;;;;;5140559;27;20305;-68
2022/10/16 04:13:02;;;;;;;0.20;0.20;;;;;;;;;;5140438;27;20652;-67
2022/10/16 04:15:30;;;;;;;0.30;0.30;;;;;;;;;;5140251;27;20213;-67
2022/10/16 04:17:59;;;;;;;0.30;0.30;;;;;;;;;;5121249;27;20210;-67
2022/10/16 04:20:26;;;;;;;0.30;0.30;;;;;;;;;;5120273;28;20242;-67
2022/10/16 04:22:53;;;;;;;0.30;0.30;;;;;;;;;;5119434;28;20325;-67
2022/10/16 04:25:21;;;;;;;0.30;0.30;;;;;;;;;;5119979;28;20209;-67
2022/10/16 04:27:49;;;;;;;0.28;0.28;;;;;;;;;;5135900;27;20234;-67
2022/10/16 04:30:16;;;;;;;0.20;0.20;;;;;;;;;;5140130;27;20259;-67
2022/10/16 04:32:44;;;;;;;0.20;0.20;;;;;;;;;;5139809;27;20255;-67
2022/10/16 04:35:12;;;;;;;0.30;0.30;;;;;;;;;;5140027;27;20209;-67
2022/10/16 04:37:40;;;;;;;0.28;0.28;;;;;;;;;;5123886;27;20199;-69
2022/10/16 04:40:08;;;;;;;0.32;0.30;;;;;;;;;;5118948;28;20245;-67
2022/10/16 04:42:35;;;;;;;0.43;0.22;;;;;;;;;;5118809;28;20238;-67
2022/10/16 04:45:03;;;;;;;0.28;0.28;;;;;;;;;;5119135;28;20303;-67
2022/10/16 04:47:30;;;;;;;0.32;0.30;;;;;;;;;;5133169;27;20247;-67
2022/10/16 04:49:58;;;;;;;0.20;0.20;;;;;;;;;;5138864;27;20281;-67
2022/10/16 04:52:27;;;;;;;0.40;0.20;;;;;;;;;;5127384;27;20199;-67
2022/10/16 04:54:56;;;;;;;0.20;0.20;;;;;;;;;;5138145;27;20223;-67
2022/10/16 04:57:23;;;;;;;0.20;0.20;;;;;;;;;;5129241;27;20203;-67
2022/10/16 04:59:51;;;;;;;0.25;0.25;;;;;;;;;;5138145;27;20218;-67
2022/10/16 05:02:18;;;;;;;0.20;0.20;;;;;;;;;;5139227;27;20198;-67
2022/10/16 05:04:46;;;;;;;0.30;0.30;;;;;;;;;;5138780;27;20210;-68
2022/10/16 05:07:13;;;;;;;0.30;0.30;;;;;;;;;;5129691;27;20241;-68
2022/10/16 05:09:42;;;;;;;0.20;0.20;;;;;;;;;;5138587;27;20208;-68
2022/10/16 05:12:09;;;;;;;0.30;0.30;;;;;;;;;;5138676;27;20234;-67
2022/10/16 05:14:37;;;;;;;0.20;0.20;;;;;;;;;;5138646;27;20547;-68
2022/10/16 05:17:04;;;;;;;0.30;0.28;;;;;;;;;;5130493;27;20211;-67
2022/10/16 05:19:32;;;;;;;0.30;0.28;;;;;;;;;;5118444;28;20284;-67
2022/10/16 05:21:59;;;;;;;0.30;0.20;;;;;;;;;;5119089;28;20290;-68
2022/10/16 05:24:27;;;;;;;0.20;0.20;;;;;;;;;;5118556;28;20644;-67
2022/10/16 05:26:56;;;;;;;0.20;0.20;;;;;;;;;;5124393;27;20317;-67
2022/10/16 05:29:23;;;;;;;0.20;0.20;;;;;;;;;;5138840;27;20202;-67
2022/10/16 05:31:52;;;;;;;0.40;0.30;;;;;;;;;;5139139;27;20221;-68
2022/10/16 05:34:20;;;;;;;0.20;0.13;;;;;;;;;;5138728;27;20628;-67
2022/10/16 05:36:47;;;;;;;0.20;0.20;;;;;;;;;;5134398;27;20195;-67
2022/10/16 05:39:16;;;;;;;0.55;0.20;;;;;;;;;;5138934;27;20321;-67
2022/10/16 05:41:43;;;;;;;0.25;0.25;;;;;;;;;;5138344;27;20550;-67
2022/10/16 05:44:13;;;;;;;0.20;0.20;;;;;;;;;;5139017;27;20210;-67
2022/10/16 05:46:40;;;;;;;0.20;0.20;;;;;;;;;;5138283;28;20229;-67
2022/10/16 05:49:07;;;;;;;0.20;0.20;;;;;;;;;;5138912;28;20302;-67
2022/10/16 05:51:35;;;;;;;1.00;0.30;;;;;;;;;;5138948;28;20297;-67
2022/10/16 05:54:02;;;;;;;0.30;0.20;;;;;;;;;;5138566;28;20789;-67
2022/10/16 05:56:30;;;;;;;0.20;0.20;;;;;;;;;;5137893;28;20242;-67
2022/10/16 05:58:57;;;;;;;0.32;0.28;;;;;;;;;;5137748;28;20261;-67
2022/10/16 06:01:26;;;;;;;0.40;0.30;;;;;;;;;;5141925;27;20202;-67
2022/10/16 06:03:54;;;;;;;0.20;0.20;;;;;;;;;;5142573;27;20245;-67
2022/10/16 06:06:22;;;;;;;0.20;0.20;;;;;;;;;;5141907;27;20237;-67
2022/10/16 06:08:50;;;;;;;0.30;0.30;;;;;;;;;;5142745;27;20237;-67
2022/10/16 06:11:19;;;;;;;0.20;0.20;;;;;;;;;;5142510;27;20261;-67
2022/10/16 06:13:47;;;;;;;0.20;0.20;;;;;;;;;;5142813;27;20285;-68
2022/10/16 06:16:15;;;;;;;0.20;0.20;;;;;;;;;;5142623;27;20202;-67
2022/10/16 06:18:44;;;;;;;0.22;0.22;;;;;;;;;;5121863;28;20529;-67
2022/10/16 06:21:12;;;;;;;0.22;0.22;;;;;;;;;;5123234;27;20308;-67
2022/10/16 06:23:39;;;;;;;0.30;0.22;;;;;;;;;;5138789;27;20630;-67
2022/10/16 06:26:08;;;;;;;0.20;0.20;;;;;;;;;;5136954;27;20337;-67
2022/10/16 06:28:35;;;;;;;0.30;0.25;;;;;;;;;;5121642;28;20207;-69
2022/10/16 06:31:03;;;;;;;1.45;0.30;;;;;;;;;;5109767;28;20211;-68
2022/10/16 06:33:31;;;;;;;0.30;0.20;;;;;;;;;;5114175;28;20574;-68
2022/10/16 06:36:03;;;;;;;0.20;0.20;;;;;;;;;;5101562;28;20300;-67
2022/10/16 06:38:31;;;;;;;0.20;0.20;;;;;;;;;;5107143;28;20590;-67
2022/10/16 06:40:58;;;;;;;0.30;0.30;;;;;;;;;;5111788;28;20254;-67
2022/10/16 06:43:27;;;;;;;0.30;0.30;;;;;;;;;;5107714;28;20484;-67
2022/10/16 06:45:55;;;;;;;0.20;0.20;;;;;;;;;;5101646;28;20208;-67
2022/10/16 06:48:23;;;;;;;0.20;0.20;;;;;;;;;;5115797;28;20207;-67
2022/10/16 06:50:58;;;;;;;0.20;0.20;;;;;;;;;;5120008;28;20203;-66
2022/10/16 06:53:27;;;;;;;0.20;0.15;;;;;;;;;;5118883;28;20199;-67
2022/10/16 06:55:55;;;;;;;0.32;0.30;;;;;;;;;;5107222;28;20207;-67
2022/10/16 06:58:24;;;;;;;0.20;0.20;;;;;;;;;;5115872;28;20263;-66
2022/10/16 07:00:57;;;;;;;0.25;0.20;;;;;;;;;;5121111;28;20625;-66
2022/10/16 07:03:24;;;;;;;0.15;0.15;;;;;;;;;;5120931;28;20202;-66
2022/10/16 07:05:51;;;;;;;0.20;0.13;;;;;;;;;;5121073;28;20229;-66
2022/10/16 07:08:19;;;;;;;0.88;0.20;;;;;;;;;;5120063;28;20199;-66
2022/10/16 07:10:48;;;;;;;0.20;0.20;;;;;;;;;;5120644;28;20195;-66
2022/10/16 07:13:16;;;;;;;0.20;0.20;;;;;;;;;;5119665;28;20246;-66
2022/10/16 07:15:43;;;;;;;0.20;0.20;;;;;;;;;;5120645;28;20253;-66
2022/10/16 07:18:10;;;;;;;0.20;0.20;;;;;;;;;;5119901;28;20235;-66
2022/10/16 07:20:38;;;;;;;0.10;0.10;;;;;;;;;;5119967;28;20227;-66
2022/10/16 07:23:05;;;;;;;0.20;0.20;;;;;;;;;;5119920;28;20195;-66
2022/10/16 07:25:33;;;;;;;0.28;0.28;;;;;;;;;;5119945;28;20294;-66
2022/10/16 07:28:02;;;;;;;0.20;0.20;;;;;;;;;;5135442;27;20626;-66
2022/10/16 07:30:29;;;;;;;0.30;0.28;;;;;;;;;;5139380;27;20221;-66
2022/10/16 07:32:57;;;;;;;0.10;0.10;;;;;;;;;;5139682;27;20202;-66
2022/10/16 07:35:24;;;;;;;0.20;0.20;;;;;;;;;;5140609;27;20233;-66
2022/10/16 07:37:52;;;;;;;0.30;0.30;;;;;;;;;;5140233;27;20238;-66
2022/10/16 07:40:19;;;;;;;0.75;0.30;;;;;;;;;;5140178;27;20230;-66
2022/10/16 07:42:47;;;;;;;0.25;0.22;;;;;;;;;;5140119;27;20203;-66
2022/10/16 07:45:16;;;;;;;0.20;0.20;;;;;;;;;;5140653;27;20206;-66
2022/10/16 07:47:43;;;;;;;0.30;0.30;;;;;;;;;;5139738;27;20258;-66
2022/10/16 07:50:10;;;;;;;0.20;0.20;;;;;;;;;;5140319;27;20202;-67
2022/10/16 07:52:38;;;;;;;0.20;0.20;;;;;;;;;;5140188;27;20233;-66
2022/10/16 07:55:06;;;;;;;0.20;0.20;;;;;;;;;;5140080;27;20604;-66
2022/10/16 07:57:33;;;;;;;0.22;0.20;;;;;;;;;;5139896;27;20278;-66
2022/10/16 08:00:01;;;;;;;0.30;0.30;;;;;;;;;;5140085;27;20265;-66
2022/10/16 08:02:30;;;;;;;0.88;0.20;;;;;;;;;;5140249;27;20285;-66
2022/10/16 08:04:57;;;;;;;0.30;0.22;;;;;;;;;;5139967;27;20580;-67
2022/10/16 08:07:25;;;;;;;0.20;0.20;;;;;;;;;;5139028;27;20196;-66
2022/10/16 08:09:52;;;;;;;0.30;0.30;;;;;;;;;;5139708;27;20289;-66
2022/10/16 08:12:20;;;;;;;0.30;0.30;;;;;;;;;;5139368;27;20202;-66
2022/10/16 08:14:48;;;;;;;0.52;0.35;;;;;;;;;;5139614;27;20202;-66
2022/10/16 08:17:15;;;;;;;0.25;0.25;;;;;;;;;;5138881;27;20194;-66
2022/10/16 08:19:47;;;;;;;0.45;0.20;;;;;;;;;;5139550;27;20542;-66
2022/10/16 08:22:15;;;;;;;0.95;0.20;;;;;;;;;;5139145;27;20293;-66
2022/10/16 08:24:42;;;;;;;0.30;0.30;;;;;;;;;;5138739;27;20578;-66
2022/10/16 08:27:10;;;;;;;0.28;0.25;;;;;;;;;;5137765;27;20313;-67
2022/10/16 08:29:38;;;;;;;0.52;0.30;;;;;;;;;;5137175;27;20285;-66
2022/10/16 08:32:06;;;;;;;0.50;0.17;;;;;;;;;;5131049;27;20209;-67
2022/10/16 08:34:33;;;;;;;0.55;0.25;;;;;;;;;;5129035;27;20198;-66
2022/10/16 08:37:02;;;;;;;0.40;0.40;;;;;;;;;;5126844;27;20604;-67
2022/10/16 08:39:30;;;;;;;0.50;0.20;;;;;;;;;;5128446;27;20281;-66
2022/10/16 08:42:13;;;;;;;0.22;0.22;;;;;;;;;;5125185;27;20255;-67
2022/10/16 08:44:58;;;;;;;0.30;0.30;;;;;;;;;;5119188;27;20210;-66
2022/10/16 08:47:28;;;;;;;0.57;0.43;;;;;;;;;;5119232;27;20289;-67
2022/10/16 08:49:58;;;;;;;0.32;0.30;;;;;;;;;;5128657;27;20199;-67
2022/10/16 08:52:31;;;;;;;0.20;0.20;;;;;;;;;;5132198;27;20218;-67
2022/10/16 08:54:59;;;;;;;0.28;0.28;;;;;;;;;;5136083;27;20285;-66
2022/10/16 08:57:28;;;;;;;0.28;0.28;;;;;;;;;;5126170;27;20286;-67
2022/10/16 08:59:59;;;;;;;0.40;0.30;;;;;;;;;;5113414;27;20214;-67
2022/10/16 09:02:30;;;;;;;0.38;0.38;;;;;;;;;;5118933;28;20590;-66
2022/10/16 09:05:04;;;;;;;0.57;0.35;;;;;;;;;;5118172;28;20256;-66
2022/10/16 09:07:38;;;;;;;0.80;0.40;;;;;;;;;;5118404;28;20496;-66
2022/10/16 09:10:15;;;;;;;0.32;0.32;;;;;;;;;;5128521;27;20258;-66
2022/10/16 09:12:47;;;;;;;0.40;0.40;;;;;;;;;;5138512;27;20590;-66
2022/10/16 09:15:18;;;;;;;1.30;0.35;;;;;;;;;;5138125;27;20263;-67
2022/10/16 09:17:50;;;;;;;0.80;0.40;;;;;;;;;;5138536;27;20202;-66
2022/10/16 09:20:21;;;;;;;0.55;0.38;;;;;;;;;;5137816;27;20222;-67
2022/10/16 09:22:50;;;;;;;0.40;0.40;;;;;;;;;;5138384;27;20234;-66
2022/10/16 09:25:21;;;;;;;0.85;0.20;;;;;;;;;;5138040;27;20286;-66
2022/10/16 09:27:50;;;;;;;0.82;0.30;;;;;;;;;;5137925;27;20313;-65
2022/10/16 09:30:18;;;;;;;1.15;0.38;;;;;;;;;;5137999;27;20289;-67
2022/10/16 09:32:47;;;;;;;0.60;0.45;;;;;;;;;;5138196;27;20202;-66
2022/10/16 09:35:16;;;;;;;0.30;0.30;;;;;;;;;;5137943;27;20206;-66
2022/10/16 09:37:44;;;;;;;0.60;0.50;;;;;;;;;;5138213;27;20206;-66
2022/10/16 09:40:25;;;;;;;0.43;0.43;;;;;;;;;;5136961;28;20321;-66
2022/10/16 09:42:54;;;;;;;0.63;0.40;;;;;;;;;;5138294;27;20213;-66
2022/10/16 09:45:23;;;;;;;0.30;0.30;;;;;;;;;;5137875;28;20622;-66
2022/10/16 09:47:50;;;;;;;0.40;0.30;;;;;;;;;;5137752;28;20252;-66
2022/10/16 09:50:23;;;;;;;0.93;0.50;;;;;;;;;;5137406;28;20281;-66
2022/10/16 09:52:51;;;;;;;1.15;0.50;;;;;;;;;;5137515;28;20202;-66
2022/10/16 09:55:20;;;;;;;0.55;0.40;;;;;;;;;;5137369;28;20293;-66
2022/10/16 09:57:51;;;;;;;1.38;0.43;;;;;;;;;;5136812;28;20231;-66
2022/10/16 10:00:19;;;;;;;1.05;0.40;;;;;;;;;;5136248;28;20228;-66
2022/10/16 10:02:46;;;;;;;0.50;0.30;;;;;;;;;;5137152;28;20686;-66
2022/10/16 10:05:22;;;;;;;1.05;0.32;;;;;;;;;;5136780;28;20202;-66
2022/10/16 10:07:55;;;;;;;0.52;0.50;;;;;;;;;;5137424;28;20551;-66
2022/10/16 10:10:25;;;;;;;0.60;0.40;;;;;;;;;;5136657;28;20293;-67
2022/10/16 10:12:52;;;;;;;0.60;0.60;;;;;;;;;;5136901;28;20234;-66
2022/10/16 10:15:21;;;;;;;0.40;0.40;;;;;;;;;;5137018;28;20263;-66
2022/10/16 10:17:50;;;;;;;1.00;0.50;;;;;;;;;;5137426;28;20597;-66
2022/10/16 10:20:24;;;;;;;0.30;0.30;;;;;;;;;;5136832;28;20275;-67
2022/10/16 10:22:51;;;;;;;0.32;0.32;;;;;;;;;;5137573;28;20261;-66
2022/10/16 10:25:23;;;;;;;1.40;0.50;;;;;;;;;;5137441;28;20203;-67
2022/10/16 10:27:59;;;;;;;0.95;0.40;;;;;;;;;;5137296;28;20380;-66
2022/10/16 10:30:29;;;;;;;0.47;0.40;;;;;;;;;;5137470;28;20194;-66
2022/10/16 10:33:04;;;;;;;0.88;0.55;;;;;;;;;;5137071;28;20289;-66
2022/10/16 10:35:33;;;;;;;0.32;0.30;;;;;;;;;;5137416;28;20201;-67
2022/10/16 10:38:06;;;;;;;0.95;0.50;;;;;;;;;;5133371;28;20294;-66
2022/10/16 10:40:39;;;;;;;0.40;0.40;;;;;;;;;;5120064;28;20246;-66
2022/10/16 10:43:12;;;;;;;0.47;0.47;;;;;;;;;;5129326;27;20237;-66
2022/10/16 10:45:43;;;;;;;2.10;0.60;;;;;;;;;;5137461;28;20202;-66
2022/10/16 10:48:22;;;;;;;0.73;0.68;;;;;;;;;;5139070;27;20604;-66
2022/10/16 10:50:51;;;;;;;0.90;0.70;;;;;;;;;;5141158;27;20285;-66
2022/10/16 10:53:24;;;;;;;2.13;1.00;;;;;;;;;;5141233;27;20202;-67
2022/10/16 10:55:55;;;;;;;1.60;1.00;;;;;;;;;;5140581;27;20222;-66
2022/10/16 10:58:50;;;;;;;2.15;0.98;;;;;;;;;;5141438;27;20326;-66
2022/10/16 11:01:18;;;;;;;1.10;1.00;;;;;;;;;;5127592;27;20218;-67
2022/10/16 11:04:04;;;;;;;1.40;1.05;;;;;;;;;;5140378;27;20202;-66
2022/10/16 11:06:34;;;;;;;1.83;1.20;;;;;;;;;;5140526;27;20203;-66
2022/10/16 11:09:04;;;;;;;1.35;0.90;;;;;;;;;;5140079;27;20210;-66
2022/10/16 11:11:34;;;;;;;1.25;1.10;;;;;;;;;;5140056;27;20289;-66
2022/10/16 11:14:05;;;;;;;2.72;1.33;;;;;;;;;;5139667;27;20293;-66
2022/10/16 11:16:34;;;;;;;2.75;1.10;;;;;;;;;;5139559;27;20275;-67
2022/10/16 11:19:05;;;;;;;2.72;1.40;;;;;;;;;;5139401;27;20203;-66
2022/10/16 11:21:37;;;;;;;4.38;1.20;;;;;;;;;;5138493;27;20226;-66
2022/10/16 11:24:11;;;;;;;2.42;1.38;;;;;;;;;;5139311;27;20658;-67
2022/10/16 11:26:42;;;;;;;2.67;1.20;;;;;;;;;;5139758;27;20230;-66
2022/10/16 11:29:14;;;;;;;2.63;1.35;;;;;;;;;;5139511;27;20202;-66
2022/10/16 11:31:43;;;;;;;2.80;1.42;;;;;;;;;;5128443;27;20573;-66
2022/10/16 11:34:16;;;;;;;2.97;1.40;;;;;;;;;;5140203;27;20293;-66
2022/10/16 11:36:46;;;;;;;4.03;1.30;;;;;;;;;;5140129;27;20209;-66
2022/10/16 11:39:20;;;;;;;2.38;1.33;;;;;;;;;;5140252;27;20202;-66
2022/10/16 11:41:50;;;;;;;1.70;1.10;;;;;;;;;;5119170;28;20226;-66
2022/10/16 11:44:27;;;;;;;2.28;1.35;;;;;;;;;;5118645;28;20238;-66
2022/10/16 11:47:00;;;;;;;1.60;1.30;;;;;;;;;;5118711;28;20228;-66
2022/10/16 11:49:28;;;;;;;2.17;1.10;;;;;;;;;;5119651;27;20594;-67
2022/10/16 11:51:57;;;;;;;1.60;1.08;;;;;;;;;;5138679;27;20237;-67
2022/10/16 11:54:28;;;;;;;1.80;1.23;;;;;;;;;;5138484;27;20202;-67
2022/10/16 11:56:59;;;;;;;1.92;0.98;;;;;;;;;;5138750;27;20290;-67
2022/10/16 11:59:31;;;;;;;2.25;1.40;;;;;;;;;;5138386;27;20202;-68
2022/10/16 12:02:05;;;;;;;1.23;1.05;;;;;;;;;;5130400;27;20269;-69
2022/10/16 12:04:36;;;;;;;2.10;1.38;;;;;;;;;;5138118;27;20217;-67
2022/10/16 12:07:06;;;;;;;2.05;1.17;;;;;;;;;;5138492;27;20711;-68
2022/10/16 12:09:36;;;;;;;3.28;1.30;;;;;;;;;;5138497;27;20574;-66
2022/10/16 12:12:03;;;;;;;1.52;0.90;;;;;;;;;;5138392;27;20301;-68
2022/10/16 12:14:39;;;;;;;1.48;1.02;;;;;;;;;;5137117;27;20297;-66
2022/10/16 12:17:22;;;;;;;2.65;1.20;;;;;;;;;;5138425;27;20664;-67
2022/10/16 12:19:59;;;;;;;1.90;1.23;;;;;;;;;;5134689;27;20637;-67
2022/10/16 12:22:28;;;;;;;1.33;1.20;;;;;;;;;;5132486;27;20748;-67
2022/10/16 12:24:56;;;;;;;1.40;1.00;;;;;;;;;;5137870;27;20286;-67
2022/10/16 12:27:26;;;;;;;1.80;1.08;;;;;;;;;;5137767;27;20290;-66
2022/10/16 12:29:58;;;;;;;1.77;1.23;;;;;;;;;;5137321;27;20194;-66
2022/10/16 12:32:28;;;;;;;1.75;1.05;;;;;;;;;;5137456;27;20230;-67
2022/10/16 12:34:56;;;;;;;1.25;0.93;;;;;;;;;;5136319;27;20202;-66
2022/10/16 12:37:25;;;;;;;2.17;1.30;;;;;;;;;;5124465;27;20206;-67
2022/10/16 12:39:53;;;;;;;2.15;1.10;;;;;;;;;;5137389;27;20563;-66
2022/10/16 12:42:38;;;;;;;2.35;1.20;;;;;;;;;;5137408;27;20228;-67
2022/10/16 12:45:25;;;;;;;1.58;1.05;;;;;;;;;;5136705;27;20201;-66
2022/10/16 12:47:54;;;;;;;1.23;1.13;;;;;;;;;;5137752;27;20294;-67
2022/10/16 12:50:32;;;;;;;1.67;0.95;;;;;;;;;;5137037;27;20720;-67
2022/10/16 12:53:00;;;;;;;1.23;1.10;;;;;;;;;;5137410;27;20220;-68
2022/10/16 12:55:28;;;;;;;1.67;0.98;;;;;;;;;;5130016;27;20290;-67
2022/10/16 12:58:10;;;;;;;1.85;1.20;;;;;;;;;;5118260;27;20195;-67
2022/10/16 13:00:45;;;;;;;2.83;1.13;;;;;;;;;;5096831;27;20206;-68
2022/10/16 13:03:30;;;;;;;1.10;0.85;;;;;;;;;;5142829;27;20202;-67
2022/10/16 13:06:08;;;;;;;1.30;1.00;;;;;;;;;;5097987;28;20283;-67
2022/10/16 13:08:42;;;;;;;1.20;1.00;;;;;;;;;;5123701;27;20477;-67
2022/10/16 13:11:13;;;;;;;1.63;0.80;;;;;;;;;;5137038;27;20300;-67
2022/10/16 13:13:58;;;;;;;1.75;1.00;;;;;;;;;;5137209;27;20220;-67
2022/10/16 13:16:31;;;;;;;1.52;0.88;;;;;;;;;;5137229;27;20202;-67
2022/10/16 13:19:05;;;;;;;1.58;0.93;;;;;;;;;;5136162;27;20247;-67
2022/10/16 13:21:40;;;;;;;1.17;0.90;;;;;;;;;;5137083;27;20561;-67
2022/10/16 13:24:13;;;;;;;1.40;1.02;;;;;;;;;;5138223;27;20625;-67
2022/10/16 13:26:44;;;;;;;1.60;0.85;;;;;;;;;;5136646;27;20269;-67
2022/10/16 13:29:11;;;;;;;1.35;0.80;;;;;;;;;;5131552;27;20291;-67
2022/10/16 13:31:41;;;;;;;2.55;1.00;;;;;;;;;;5116378;27;20194;-66
2022/10/16 13:34:13;;;;;;;1.92;1.00;;;;;;;;;;5137477;27;20604;-67
2022/10/16 13:36:45;;;;;;;1.55;0.80;;;;;;;;;;5137586;27;20203;-66
2022/10/16 13:39:14;;;;;;;1.25;0.82;;;;;;;;;;5136667;27;20301;-66
2022/10/16 13:41:42;;;;;;;1.40;0.80;;;;;;;;;;5136656;27;20924;-67
2022/10/16 13:44:15;;;;;;;1.33;0.80;;;;;;;;;;5137656;28;20297;-66
2022/10/16 13:46:43;;;;;;;2.03;1.20;;;;;;;;;;5135358;28;20644;-66
2022/10/16 13:49:15;;;;;;;1.55;0.93;;;;;;;;;;5130435;28;20693;-66
2022/10/16 13:51:42;;;;;;;2.38;0.90;;;;;;;;;;5134150;27;20245;-67
2022/10/16 13:54:14;;;;;;;0.80;0.80;;;;;;;;;;5136930;27;20259;-66
2022/10/16 13:56:41;;;;;;;1.38;0.95;;;;;;;;;;5136529;28;20209;-66
2022/10/16 13:59:24;;;;;;;1.55;0.90;;;;;;;;;;5136362;27;20304;-66
2022/10/16 14:01:54;;;;;;;1.05;0.95;;;;;;;;;;5136883;28;20234;-66
2022/10/16 14:04:22;;;;;;;1.10;0.93;;;;;;;;;;5137040;28;20601;-67
2022/10/16 14:06:51;;;;;;;1.15;0.82;;;;;;;;;;5137161;28;20228;-67
2022/10/16 14:09:22;;;;;;;1.92;1.00;;;;;;;;;;5130959;28;20242;-67
2022/10/16 14:11:52;;;;;;;1.52;1.10;;;;;;;;;;5126936;27;20289;-67
2022/10/16 14:14:20;;;;;;;2.40;1.00;;;;;;;;;;5136751;27;20199;-66
2022/10/16 14:16:48;;;;;;;2.13;1.08;;;;;;;;;;5136505;27;20597;-66
2022/10/16 14:19:19;;;;;;;1.35;1.10;;;;;;;;;;5136280;27;20229;-66
2022/10/16 14:21:47;;;;;;;1.30;1.10;;;;;;;;;;5138622;27;20225;-67
2022/10/16 14:24:14;;;;;;;1.95;1.05;;;;;;;;;;5140100;27;20297;-67
2022/10/16 14:26:44;;;;;;;1.20;1.10;;;;;;;;;;5139119;27;20629;-67
2022/10/16 14:29:14;;;;;;;2.10;1.10;;;;;;;;;;5134510;27;20282;-66
2022/10/16 14:31:42;;;;;;;1.85;1.35;;;;;;;;;;5136708;27;20190;-66
2022/10/16 14:34:27;;;;;;;2.03;1.10;;;;;;;;;;5139351;27;20198;-66
2022/10/16 14:36:56;;;;;;;2.05;1.10;;;;;;;;;;5140380;27;20251;-66
2022/10/16 14:39:24;;;;;;;2.53;1.25;;;;;;;;;;5140262;27;20285;-67
2022/10/16 14:41:52;;;;;;;2.28;1.13;;;;;;;;;;5139804;27;20767;-67
2022/10/16 14:44:20;;;;;;;3.30;1.17;;;;;;;;;;5140159;27;20204;-67
2022/10/16 14:46:48;;;;;;;2.90;1.15;;;;;;;;;;5140732;27;20692;-68
2022/10/16 14:49:19;;;;;;;1.00;0.90;;;;;;;;;;5135636;27;20234;-68
2022/10/16 14:51:47;;;;;;;2.42;1.40;;;;;;;;;;5129560;27;20243;-68
2022/10/16 14:54:18;;;;;;;1.73;1.10;;;;;;;;;;5140196;27;20266;-68
2022/10/16 14:56:50;;;;;;;2.58;1.10;;;;;;;;;;5140364;27;20285;-68
2022/10/16 14:59:19;;;;;;;1.58;0.82;;;;;;;;;;5138897;27;20543;-67